createdAt,value
2022-09-30T00:01:53.669Z,9.10
2022-09-30T00:04:24.327Z,9.10
2022-09-30T00:06:53.521Z,9.10
2022-09-30T00:09:27.698Z,9.10
2022-09-30T00:11:58.082Z,9.20
2022-09-30T00:14:25.733Z,9.20
2022-09-30T00:16:59.841Z,9.20
2022-09-30T00:19:27.404Z,9.20
2022-09-30T00:21:54.947Z,9.20
2022-09-30T00:24:22.563Z,9.10
2022-09-30T00:26:49.914Z,9.20
2022-09-30T00:29:17.320Z,9.20
2022-09-30T00:31:44.998Z,9.20
2022-09-30T00:34:13.065Z,9.30
2022-09-30T00:36:46.336Z,9.30
2022-09-30T00:39:17.099Z,9.30
2022-09-30T00:41:48.179Z,9.30
2022-09-30T00:44:48.254Z,9.20
2022-09-30T00:47:25.056Z,9.20
2022-09-30T00:49:53.281Z,9.30
2022-09-30T00:52:20.728Z,9.30
2022-09-30T00:54:55.873Z,9.20
2022-09-30T00:57:23.275Z,9.20
2022-09-30T00:59:52.074Z,9.20
2022-09-30T01:02:20.447Z,9.10
2022-09-30T01:04:52.371Z,9.00
2022-09-30T01:07:20.895Z,8.90
2022-09-30T01:09:49.202Z,8.90
2022-09-30T01:12:23.085Z,8.90
2022-09-30T01:14:55.147Z,8.90
2022-09-30T01:17:49.568Z,8.90
2022-09-30T01:20:47.036Z,8.90
2022-09-30T01:23:53.002Z,9.00
2022-09-30T01:26:32.299Z,9.00
2022-09-30T01:29:27.299Z,9.00
2022-09-30T01:32:03.607Z,9.00
2022-09-30T01:35:05.006Z,8.90
2022-09-30T01:38:01.891Z,8.90
2022-09-30T01:41:00.774Z,8.90
2022-09-30T01:43:51.758Z,8.90
2022-09-30T01:46:53.452Z,8.90
2022-09-30T01:49:27.404Z,8.90
2022-09-30T01:52:20.983Z,8.90
2022-09-30T01:55:21.912Z,8.90
2022-09-30T01:58:06.511Z,8.90
2022-09-30T02:00:39.413Z,8.80
2022-09-30T02:03:16.252Z,8.80
2022-09-30T02:05:51.486Z,8.70
2022-09-30T02:08:25.122Z,8.70
2022-09-30T02:11:03.347Z,8.60
2022-09-30T02:14:00.602Z,8.60
2022-09-30T02:16:46.206Z,8.60
2022-09-30T02:19:32.056Z,8.50
2022-09-30T02:22:16.375Z,8.50
2022-09-30T02:24:46.241Z,8.50
2022-09-30T02:27:22.403Z,8.40
2022-09-30T02:29:55.965Z,8.40
2022-09-30T02:32:33.897Z,8.40
2022-09-30T02:35:06.785Z,8.30
2022-09-30T02:37:44.637Z,8.30
2022-09-30T02:40:50.831Z,8.30
2022-09-30T02:43:20.806Z,8.30
2022-09-30T02:46:21.229Z,8.30
2022-09-30T02:48:55.947Z,8.40
2022-09-30T02:51:44.039Z,8.30
2022-09-30T02:54:55.416Z,8.30
2022-09-30T02:57:38.332Z,8.20
2022-09-30T03:00:12.479Z,8.20
2022-09-30T03:02:41.768Z,8.20
2022-09-30T03:05:10.354Z,8.20
2022-09-30T03:07:38.588Z,8.10
2022-09-30T03:10:16.641Z,8.10
2022-09-30T03:13:07.937Z,8.10
2022-09-30T03:16:03.274Z,8.10
2022-09-30T03:18:49.387Z,8.10
2022-09-30T03:21:40.318Z,8.00
2022-09-30T03:24:27.384Z,8.00
2022-09-30T03:26:58.928Z,8.00
2022-09-30T03:29:31.236Z,8.00
2022-09-30T03:32:17.616Z,8.00
2022-09-30T03:35:04.126Z,7.90
2022-09-30T03:37:49.768Z,7.90
2022-09-30T03:40:33.182Z,7.90
2022-09-30T03:43:12.855Z,7.80
2022-09-30T03:45:55.628Z,7.80
2022-09-30T03:48:24.714Z,7.70
2022-09-30T03:50:53.326Z,7.70
2022-09-30T03:53:21.269Z,7.60
2022-09-30T03:55:51.473Z,7.60
2022-09-30T03:58:22.265Z,7.60
2022-09-30T04:00:54.756Z,7.50
2022-09-30T04:03:23.560Z,7.50
2022-09-30T04:05:50.878Z,7.40
2022-09-30T04:08:18.295Z,7.40
2022-09-30T04:10:46.735Z,7.30
2022-09-30T04:13:15.311Z,7.20
2022-09-30T04:15:42.662Z,7.30
2022-09-30T04:18:09.970Z,7.20
2022-09-30T04:20:39.510Z,7.20
2022-09-30T04:23:07.312Z,7.10
2022-09-30T04:25:34.621Z,7.10
2022-09-30T04:28:04.600Z,7.10
2022-09-30T04:30:33.727Z,7.10
2022-09-30T04:33:01.349Z,7.10
2022-09-30T04:35:30.276Z,7.10
2022-09-30T04:37:57.745Z,6.90
2022-09-30T04:40:25.559Z,6.90
2022-09-30T04:42:58.331Z,6.80
2022-09-30T04:45:26.242Z,6.90
2022-09-30T04:47:53.976Z,6.80
2022-09-30T04:50:21.636Z,6.80
2022-09-30T04:52:50.902Z,6.90
2022-09-30T04:55:18.293Z,6.80
2022-09-30T04:57:46.039Z,6.90
2022-09-30T05:00:14.907Z,6.80
2022-09-30T05:02:44.926Z,6.90
2022-09-30T05:05:14.741Z,7.00
2022-09-30T05:07:42.174Z,6.90
2022-09-30T05:10:11.376Z,7.00
2022-09-30T05:12:46.638Z,7.10
2022-09-30T05:15:13.996Z,7.10
2022-09-30T05:17:41.422Z,7.20
2022-09-30T05:20:11.037Z,7.20
2022-09-30T05:22:38.689Z,7.20
2022-09-30T05:25:09.682Z,7.20
2022-09-30T05:27:37.588Z,7.20
2022-09-30T05:30:06.770Z,7.20
2022-09-30T05:32:34.138Z,7.20
2022-09-30T05:35:03.721Z,7.20
2022-09-30T05:37:31.616Z,7.30
2022-09-30T05:39:59.423Z,7.30
2022-09-30T05:42:26.778Z,7.20
2022-09-30T05:44:54.028Z,7.40
2022-09-30T05:47:21.505Z,7.40
2022-09-30T05:49:51.115Z,7.50
2022-09-30T05:52:22.772Z,7.40
2022-09-30T05:54:50.851Z,7.50
2022-09-30T05:57:18.350Z,7.50
2022-09-30T05:59:45.758Z,7.60
2022-09-30T06:02:15.529Z,7.70
2022-09-30T06:04:42.863Z,7.70
2022-09-30T06:07:10.747Z,7.70
2022-09-30T06:09:38.609Z,7.80
2022-09-30T06:12:07.060Z,7.80
2022-09-30T06:14:34.613Z,7.80
2022-09-30T06:17:05.378Z,7.90
2022-09-30T06:19:33.079Z,7.90
2022-09-30T06:22:00.689Z,8.10
2022-09-30T06:24:28.103Z,8.20
2022-09-30T06:26:55.422Z,8.20
2022-09-30T06:29:22.820Z,8.20
2022-09-30T06:31:50.175Z,8.30
2022-09-30T06:34:17.591Z,8.40
2022-09-30T06:36:44.812Z,8.40
2022-09-30T06:39:13.765Z,8.50
2022-09-30T06:41:44.200Z,8.50
2022-09-30T06:44:22.247Z,8.60
2022-09-30T06:46:53.934Z,8.60
2022-09-30T06:49:22.201Z,8.70
2022-09-30T06:51:51.545Z,8.80
2022-09-30T06:54:22.756Z,8.90
2022-09-30T06:56:52.683Z,9.00
2022-09-30T06:59:19.948Z,9.10
2022-09-30T07:01:47.562Z,9.30
2022-09-30T07:04:15.192Z,9.40
2022-09-30T07:06:45.699Z,9.50
2022-09-30T07:09:13.614Z,9.50
2022-09-30T07:11:41.382Z,9.60
2022-09-30T07:14:13.544Z,9.40
2022-09-30T07:16:40.995Z,9.40
2022-09-30T07:19:10.337Z,9.50
2022-09-30T07:21:38.031Z,9.50
2022-09-30T07:24:05.794Z,9.60
2022-09-30T07:26:33.756Z,9.70
2022-09-30T07:29:02.227Z,9.90
2022-09-30T07:31:34.632Z,10.00
2022-09-30T07:34:07.853Z,10.10
2022-09-30T07:36:37.998Z,9.90
2022-09-30T07:39:09.927Z,9.80
2022-09-30T07:41:44.413Z,9.70
2022-09-30T07:44:14.863Z,9.90
2022-09-30T07:46:45.418Z,10.00
2022-09-30T07:49:20.964Z,10.10
2022-09-30T07:51:48.377Z,10.20
2022-09-30T07:54:18.315Z,10.20
2022-09-30T07:59:37.813Z,10.40
2022-09-30T08:02:07.096Z,10.90
2022-09-30T08:04:36.573Z,11.00
2022-09-30T08:07:06.704Z,10.90
2022-09-30T08:09:35.124Z,11.00
2022-09-30T08:12:04.550Z,11.10
2022-09-30T08:14:32.551Z,11.30
2022-09-30T08:17:00.766Z,11.40
2022-09-30T08:19:30.610Z,11.90
2022-09-30T08:21:58.724Z,11.90
2022-09-30T08:24:27.090Z,12.10
2022-09-30T08:26:55.681Z,12.70
2022-09-30T08:32:13.674Z,14.40
2022-09-30T08:34:41.025Z,14.80
2022-09-30T08:37:10.347Z,14.90
2022-09-30T08:39:39.058Z,15.00
2022-09-30T08:42:36.040Z,15.20
2022-09-30T08:45:34.529Z,15.30
2022-09-30T08:48:20.633Z,15.80
2022-09-30T08:51:13.444Z,16.20
2022-09-30T08:53:44.010Z,16.20
2022-09-30T08:56:24.048Z,16.20
2022-09-30T08:58:57.293Z,16.40
2022-09-30T09:01:30.344Z,17.00
2022-09-30T09:03:59.539Z,17.60
2022-09-30T09:06:50.556Z,18.40
2022-09-30T09:09:38.891Z,18.90
2022-09-30T09:12:44.165Z,18.70
2022-09-30T09:15:36.706Z,19.20
2022-09-30T09:18:25.230Z,19.10
2022-09-30T09:20:58.365Z,19.50
2022-09-30T09:23:28.658Z,19.00
2022-09-30T09:25:56.126Z,18.90
2022-09-30T09:29:01.498Z,17.40
2022-09-30T09:31:28.994Z,16.60
2022-09-30T09:34:07.820Z,16.40
2022-09-30T09:37:46.284Z,15.70
2022-09-30T09:40:36.120Z,15.20
2022-09-30T09:43:16.644Z,14.90
2022-09-30T09:46:09.698Z,14.90
2022-09-30T09:48:37.403Z,14.80
2022-09-30T09:51:24.694Z,14.90
2022-09-30T09:53:58.345Z,14.70
2022-09-30T09:56:35.059Z,14.80
2022-09-30T09:59:19.992Z,14.80
2022-09-30T10:01:53.068Z,14.50
2022-09-30T10:04:30.491Z,14.60
2022-09-30T10:07:00.895Z,14.80
2022-09-30T10:09:35.687Z,14.90
2022-09-30T10:12:06.055Z,15.10
2022-09-30T10:14:35.902Z,15.40
2022-09-30T10:17:05.998Z,15.60
2022-09-30T10:19:35.102Z,15.70
2022-09-30T10:22:12.126Z,15.70
2022-09-30T10:24:40.370Z,15.70
2022-09-30T10:27:52.053Z,15.70
2022-09-30T10:30:55.970Z,15.30
2022-09-30T10:33:29.077Z,15.60
2022-09-30T10:36:14.948Z,15.40
2022-09-30T10:39:24.954Z,15.20
2022-09-30T10:42:08.983Z,15.30
2022-09-30T10:44:47.787Z,15.60
2022-09-30T10:47:19.759Z,16.40
2022-09-30T10:50:10.390Z,17.50
2022-09-30T10:52:53.552Z,18.70
2022-09-30T10:55:20.967Z,19.00
2022-09-30T10:57:50.663Z,18.20
2022-09-30T11:00:27.995Z,18.50
2022-09-30T11:03:17.615Z,18.90
2022-09-30T11:05:46.852Z,19.70
2022-09-30T11:08:22.819Z,20.20
2022-09-30T11:11:14.375Z,20.00
2022-09-30T11:13:57.166Z,20.20
2022-09-30T11:16:47.070Z,21.00
2022-09-30T11:19:27.119Z,21.30
2022-09-30T11:21:57.245Z,22.30
2022-09-30T11:24:36.982Z,23.10
2022-09-30T11:27:25.233Z,23.00
2022-09-30T11:30:28.086Z,23.60
2022-09-30T11:33:10.731Z,23.30
2022-09-30T11:35:57.644Z,22.00
2022-09-30T11:39:01.903Z,19.90
2022-09-30T11:41:32.791Z,19.60
2022-09-30T11:44:35.506Z,20.10
2022-09-30T11:47:21.999Z,20.70
2022-09-30T11:50:07.572Z,20.30
2022-09-30T11:52:59.797Z,19.40
2022-09-30T11:56:26.093Z,19.80
2022-09-30T11:58:58.670Z,20.20
2022-09-30T12:01:50.217Z,19.90
2022-09-30T12:04:29.540Z,19.60
2022-09-30T12:07:01.734Z,19.10
2022-09-30T12:09:53.921Z,19.80
2022-09-30T12:12:21.366Z,20.70
2022-09-30T12:15:05.975Z,22.00
2022-09-30T12:17:46.797Z,22.30
2022-09-30T12:20:34.947Z,22.70
2022-09-30T12:23:21.205Z,23.00
2022-09-30T12:26:06.935Z,23.50
2022-09-30T12:28:53.061Z,23.90
2022-09-30T12:31:48.384Z,22.80
2022-09-30T12:35:01.569Z,22.00
2022-09-30T12:38:02.568Z,20.30
2022-09-30T12:40:52.327Z,19.60
2022-09-30T12:43:51.499Z,18.80
2022-09-30T12:46:30.597Z,19.30
2022-09-30T12:49:03.946Z,20.00
2022-09-30T12:51:37.704Z,20.30
2022-09-30T12:54:16.688Z,20.50
2022-09-30T12:56:47.190Z,20.70
2022-09-30T12:59:15.588Z,20.70
2022-09-30T13:01:43.278Z,20.90
2022-09-30T13:04:18.346Z,21.20
2022-09-30T13:06:45.635Z,21.10
2022-09-30T13:09:30.115Z,20.90
2022-09-30T13:12:00.387Z,21.10
2022-09-30T13:14:35.243Z,21.40
2022-09-30T13:17:08.526Z,21.30
2022-09-30T13:19:42.836Z,21.20
2022-09-30T13:22:19.204Z,20.80
2022-09-30T13:25:03.301Z,21.00
2022-09-30T13:27:36.720Z,20.40
2022-09-30T13:30:16.183Z,20.30
2022-09-30T13:32:51.641Z,20.20
2022-09-30T13:35:51.066Z,20.50
2022-09-30T13:38:24.523Z,20.30
2022-09-30T13:41:03.005Z,20.20
2022-09-30T13:43:42.827Z,20.10
2022-09-30T13:46:37.277Z,20.00
2022-09-30T13:49:33.551Z,19.80
2022-09-30T13:52:02.678Z,19.70
2022-09-30T13:54:37.854Z,19.60
2022-09-30T13:57:07.614Z,19.60
2022-09-30T13:59:51.079Z,19.90
2022-09-30T14:02:55.175Z,19.80
2022-09-30T14:05:51.059Z,19.60
2022-09-30T14:08:29.354Z,19.50
2022-09-30T14:11:22.582Z,19.60
2022-09-30T14:14:07.442Z,19.00
2022-09-30T14:16:47.603Z,18.80
2022-09-30T14:19:22.481Z,18.50
2022-09-30T14:21:58.832Z,18.20
2022-09-30T14:24:31.784Z,17.90
2022-09-30T14:27:09.881Z,17.60
2022-09-30T14:29:55.050Z,17.40
2022-09-30T14:32:46.393Z,17.10
2022-09-30T14:35:37.453Z,16.80
2022-09-30T14:38:29.659Z,16.80
2022-09-30T14:41:09.330Z,16.40
2022-09-30T14:43:43.062Z,16.20
2022-09-30T14:46:35.419Z,16.10
2022-09-30T14:49:08.553Z,16.00
2022-09-30T14:51:47.281Z,16.00
2022-09-30T14:54:22.819Z,16.00
2022-09-30T14:56:51.186Z,15.90
2022-09-30T14:59:27.816Z,15.60
2022-09-30T15:02:23.363Z,15.60
2022-09-30T15:05:00.451Z,15.60
2022-09-30T15:07:28.733Z,15.50
2022-09-30T15:10:01.871Z,15.30
2022-09-30T15:12:31.738Z,15.20
2022-09-30T15:15:00.640Z,15.20
2022-09-30T15:17:37.220Z,15.20
2022-09-30T15:20:24.576Z,15.10
2022-09-30T15:22:53.633Z,15.00
2022-09-30T15:25:22.132Z,14.80
2022-09-30T15:27:50.501Z,14.80
2022-09-30T15:30:18.474Z,14.70
2022-09-30T15:32:50.262Z,14.70
2022-09-30T15:35:24.157Z,14.60
2022-09-30T15:37:52.512Z,14.50
2022-09-30T15:40:40.993Z,14.40
2022-09-30T15:43:11.972Z,14.20
2022-09-30T15:45:43.607Z,14.10
2022-09-30T15:48:13.769Z,14.10
2022-09-30T15:50:49.347Z,13.90
2022-09-30T15:53:25.352Z,13.90
2022-09-30T15:55:55.990Z,13.80
2022-09-30T15:58:35.156Z,13.70
2022-09-30T16:01:25.145Z,13.50
2022-09-30T16:04:00.873Z,13.40
2022-09-30T16:06:35.323Z,13.30
2022-09-30T16:09:08.646Z,13.20
2022-09-30T16:11:42.414Z,13.10
2022-09-30T16:14:27.654Z,13.00
2022-09-30T16:16:58.681Z,12.80
2022-09-30T16:19:35.111Z,12.80
2022-09-30T16:22:05.519Z,12.60
2022-09-30T16:24:32.902Z,12.50
2022-09-30T16:27:19.864Z,12.30
2022-09-30T16:29:47.584Z,12.20
2022-09-30T16:32:17.288Z,12.20
2022-09-30T16:34:44.698Z,12.00
2022-09-30T16:37:14.163Z,11.90
2022-09-30T16:39:41.821Z,11.90
2022-09-30T16:42:16.974Z,11.70
2022-09-30T16:44:45.478Z,11.70
2022-09-30T16:47:17.878Z,11.60
2022-09-30T16:49:48.464Z,11.40
2022-09-30T16:52:17.624Z,11.20
2022-09-30T16:54:45.529Z,11.20
2022-09-30T16:57:14.382Z,11.10
2022-09-30T16:59:41.675Z,11.10
2022-09-30T17:02:14.159Z,11.00
2022-09-30T17:04:41.629Z,10.90
2022-09-30T17:07:14.520Z,10.90
2022-09-30T17:09:43.166Z,10.90
2022-09-30T17:12:13.681Z,10.80
2022-09-30T17:14:43.867Z,10.70
2022-09-30T17:17:14.202Z,10.60
2022-09-30T17:19:41.650Z,10.60
2022-09-30T17:22:09.160Z,10.50
2022-09-30T17:24:36.431Z,10.50
2022-09-30T17:27:03.931Z,10.40
2022-09-30T17:29:38.862Z,10.30
2022-09-30T17:32:09.340Z,10.40
2022-09-30T17:34:36.611Z,10.20
2022-09-30T17:37:04.048Z,10.00
2022-09-30T17:39:31.391Z,9.90
2022-09-30T17:42:16.862Z,9.90
2022-09-30T17:44:45.444Z,9.70
2022-09-30T17:47:12.826Z,9.60
2022-09-30T17:49:40.458Z,9.50
2022-09-30T17:52:07.831Z,9.40
2022-09-30T17:54:36.044Z,9.30
2022-09-30T17:57:03.762Z,9.30
2022-09-30T17:59:31.230Z,9.20
2022-09-30T18:01:58.705Z,9.20
2022-09-30T18:04:26.990Z,9.20
2022-09-30T18:06:57.904Z,9.10
2022-09-30T18:09:25.398Z,9.20
2022-09-30T18:11:53.569Z,9.40
2022-09-30T18:14:21.094Z,9.50
2022-09-30T18:16:48.502Z,9.50
2022-09-30T18:19:18.834Z,9.60
2022-09-30T18:21:46.637Z,9.70
2022-09-30T18:24:14.024Z,9.70
2022-09-30T18:26:41.481Z,9.80
2022-09-30T18:29:09.012Z,9.70
2022-09-30T18:31:37.768Z,9.80
2022-09-30T18:34:06.572Z,9.80
2022-09-30T18:36:34.118Z,9.80
2022-09-30T18:39:02.765Z,9.80
2022-09-30T18:41:31.877Z,9.80
2022-09-30T18:44:03.055Z,9.80
2022-09-30T18:46:31.879Z,9.80
2022-09-30T18:48:59.340Z,9.70
2022-09-30T18:51:26.787Z,9.60
2022-09-30T18:53:59.258Z,9.60
2022-09-30T18:56:32.285Z,9.50
2022-09-30T19:01:40.286Z,9.40
2022-09-30T19:04:07.813Z,9.30
2022-09-30T19:06:37.571Z,9.20
2022-09-30T19:09:06.742Z,9.20
2022-09-30T19:11:35.368Z,9.20
2022-09-30T19:14:05.916Z,9.10
2022-09-30T19:16:38.520Z,9.00
2022-09-30T19:19:10.976Z,9.10
2022-09-30T19:21:39.612Z,9.00
2022-09-30T19:24:09.117Z,8.90
2022-09-30T19:26:40.425Z,8.80
2022-09-30T19:29:09.797Z,8.70
2022-09-30T19:31:37.827Z,8.70
2022-09-30T19:34:18.991Z,8.70
2022-09-30T19:36:52.046Z,8.70
2022-09-30T19:39:20.032Z,8.70
2022-09-30T19:41:48.048Z,8.70
2022-09-30T19:44:19.210Z,8.60
2022-09-30T19:46:52.659Z,8.40
2022-09-30T19:49:21.764Z,8.40
2022-09-30T19:51:55.221Z,8.30
2022-09-30T19:54:37.715Z,8.40
2022-09-30T19:57:09.742Z,8.40
2022-09-30T19:59:37.087Z,8.30
2022-09-30T20:02:04.672Z,8.30
2022-09-30T20:04:34.443Z,8.30
2022-09-30T20:07:02.399Z,8.40
2022-09-30T20:09:32.728Z,8.40
2022-09-30T20:12:00.271Z,8.40
2022-09-30T20:14:45.979Z,8.40
2022-09-30T20:17:15.751Z,8.30
2022-09-30T20:19:43.151Z,8.20
2022-09-30T20:22:10.700Z,8.20
2022-09-30T20:24:40.607Z,8.20
2022-09-30T20:27:08.371Z,8.10
2022-09-30T20:29:35.659Z,8.00
2022-09-30T20:32:03.856Z,8.00
2022-09-30T20:34:34.452Z,8.10
2022-09-30T20:37:04.179Z,8.00
2022-09-30T20:39:31.573Z,8.10
2022-09-30T20:41:59.851Z,8.00
2022-09-30T20:44:27.204Z,8.00
2022-09-30T20:46:54.640Z,8.00
2022-09-30T20:49:22.047Z,8.00
2022-09-30T20:51:49.954Z,8.00
2022-09-30T20:54:17.387Z,8.00
2022-09-30T20:57:06.804Z,8.00
2022-09-30T20:59:35.617Z,8.00
2022-09-30T21:02:03.052Z,8.00
2022-09-30T21:04:30.545Z,8.00
2022-09-30T21:07:00.135Z,7.90
2022-09-30T21:09:27.569Z,7.90
2022-09-30T21:11:54.880Z,7.90
2022-09-30T21:14:22.356Z,7.90
2022-09-30T21:16:49.782Z,7.90
2022-09-30T21:19:18.891Z,7.90
2022-09-30T21:21:46.853Z,7.90
2022-09-30T21:24:16.502Z,7.90
2022-09-30T21:26:43.841Z,7.90
2022-09-30T21:29:11.211Z,7.90
2022-09-30T21:31:39.128Z,7.80
2022-09-30T21:34:06.583Z,7.80
2022-09-30T21:36:33.989Z,7.80
2022-09-30T21:39:04.923Z,7.80
2022-09-30T21:41:33.988Z,7.80
2022-09-30T21:44:03.707Z,7.70
2022-09-30T21:46:31.532Z,7.70
2022-09-30T21:49:24.917Z,7.70
2022-09-30T21:51:55.873Z,7.70
2022-09-30T21:54:23.531Z,7.70
2022-09-30T21:56:51.653Z,7.70
2022-09-30T21:59:19.590Z,7.80
2022-09-30T22:01:52.280Z,7.80
2022-09-30T22:04:21.991Z,7.80
2022-09-30T22:06:52.319Z,7.80
2022-09-30T22:09:19.760Z,7.80
2022-09-30T22:11:48.234Z,7.80
2022-09-30T22:14:16.102Z,7.80
2022-09-30T22:16:44.593Z,7.80
2022-09-30T22:19:12.607Z,7.80
2022-09-30T22:21:40.264Z,7.80
2022-09-30T22:24:09.515Z,7.80
2022-09-30T22:26:38.067Z,7.90
2022-09-30T22:29:11.462Z,7.90
2022-09-30T22:31:39.642Z,7.90
2022-09-30T22:34:32.821Z,7.80
2022-09-30T22:37:18.611Z,7.80
2022-09-30T22:39:46.055Z,7.80
2022-09-30T22:42:13.504Z,7.80
2022-09-30T22:44:40.964Z,7.80
2022-09-30T22:47:11.434Z,7.80
2022-09-30T22:49:38.983Z,7.80
2022-09-30T22:52:06.904Z,7.90
2022-09-30T22:54:36.162Z,8.00
2022-09-30T22:57:04.655Z,8.00
2022-09-30T22:59:32.444Z,8.10
2022-09-30T23:01:59.942Z,8.10
2022-09-30T23:04:27.812Z,8.10
2022-09-30T23:06:55.857Z,8.10
2022-09-30T23:09:23.758Z,8.20
2022-09-30T23:11:55.398Z,8.20
2022-09-30T23:14:24.909Z,8.20
2022-09-30T23:16:52.383Z,8.20
2022-09-30T23:19:20.318Z,8.20
2022-09-30T23:21:48.039Z,8.10
2022-09-30T23:24:15.817Z,8.00
2022-09-30T23:26:43.744Z,8.10
2022-09-30T23:29:15.094Z,8.10
2022-09-30T23:31:42.720Z,8.10
2022-09-30T23:34:10.291Z,8.10
2022-09-30T23:36:38.389Z,8.10
2022-09-30T23:39:13.360Z,8.10
2022-09-30T23:41:41.257Z,8.20
2022-09-30T23:44:10.192Z,8.20
2022-09-30T23:46:37.628Z,8.20
2022-09-30T23:49:05.037Z,8.20
2022-09-30T23:51:34.411Z,8.20
2022-09-30T23:54:04.429Z,8.20
2022-09-30T23:56:33.089Z,8.20
2022-09-30T23:59:03.467Z,8.20
